Csl Virginia — 5BEG4 — position and weather

sailwx.info

Track history (hours):
 
Tides and Currents Weather Stations Pressure Air Temp Water Temp Dewpoint Dewpoint Depression Visibility Wind Speed Wind Dir Waves Ship Positions

Csl Virginia

Last reported at 2018-Aug-11 05:15 UTC. Time now 2018-Aug-14 15:17 UTC.
Position N 31°04' E 032°19'.

Length 294 m; draft 11.3 m.

Type: Cargo ship. MMSI: 212416000.

Date/timePositionNaut miles runAvg speedWind from/ knotsBaromVisibWave heightAir tempDewpointWater temp
2018-Aug-11 05:15N 31°04' E 032°19'2 8.2
2018-Aug-11 04:59N 31°06' E 032°18'17 8.4
2018-Aug-11 02:58N 31°23' E 032°23'4 5.8
2018-Aug-11 02:19N 31°25' E 032°20'2 5.4
2018-Aug-11 02:00N 31°25' E 032°18'1 0.2
2018-Aug-10 22:32N 31°24' E 032°18'0 0.0
2018-Aug-10 22:02N 31°24' E 032°18'0 0.0
2018-Aug-10 21:58N 31°24' E 032°18'0 0.0
2018-Aug-10 20:04N 31°24' E 032°18'0 0.7
2018-Aug-10 20:00N 31°25' E 032°17'1 1.9
2018-Aug-10 19:30N 31°25' E 032°18'611.8
2018-Aug-10 19:00N 31°30' E 032°13'811.1
2018-Aug-10 18:17N 31°36' E 032°07'311.3
2018-Aug-10 18:00N 31°38' E 032°05'1713.6
2018-Aug-10 16:45N 31°48' E 031°48'5813.1
2018-Aug-10 12:18N 32°11' E 030°45'914.1
2018-Aug-10 11:41N 32°14' E 030°35'514.0
2018-Aug-10 11:20N 32°16' E 030°30'514.0
2018-Aug-10 11:01N 32°18' E 030°25'  
2018-Aug-08 05:53N 37°47' E 015°53'715.1
2018-Aug-08 05:26N 37°50' E 015°45'1614.0
2018-Aug-08 04:17N 38°04' E 015°35'414.4
2018-Aug-08 04:00N 38°08' E 015°34'714.6
2018-Aug-08 03:30N 38°15' E 015°38'5 9.8
2018-Aug-08 03:00N 38°20' E 015°40'3 6.3
2018-Aug-08 02:30N 38°23' E 015°38'5 8.6
2018-Aug-08 01:59N 38°27' E 015°35'815.3
2018-Aug-08 01:28N 38°34' E 015°31'815.6
2018-Aug-08 00:59N 38°40' E 015°26'815.4
2018-Aug-08 00:28N 38°47' E 015°21'815.6
2018-Aug-07 23:58N 38°54' E 015°17'8715.9
2018-Aug-07 18:30N 40°11' E 014°24'816.4
2018-Aug-07 18:01N 40°18' E 014°19'816.4
2018-Aug-07 17:31N 40°25' E 014°14'816.0
2018-Aug-07 17:01N 40°32' E 014°09'816.2
2018-Aug-07 16:31N 40°40' E 014°13'816.1
2018-Aug-07 16:01N 40°48' E 014°16'3 5.2
2018-Aug-07 15:30N 40°50' E 014°17'0 0.2
2018-Aug-07 15:00N 40°50' E 014°17'0 0.0
2018-Aug-07 14:30N 40°50' E 014°17'0 0.0
2018-Aug-07 14:01N 40°50' E 014°17'0 0.0
2018-Aug-07 13:31N 40°50' E 014°17'0 0.0
2018-Aug-07 13:01N 40°50' E 014°17'0 0.0
2018-Aug-07 12:31N 40°50' E 014°17'0 0.0
2018-Aug-07 12:01N 40°50' E 014°17'0 0.0
2018-Aug-07 11:31N 40°50' E 014°17'0 0.0
2018-Aug-07 11:01N 40°50' E 014°17'0 0.0
2018-Aug-07 10:27N 40°50' E 014°17'0 0.0
2018-Aug-07 10:01N 40°50' E 014°17'0 0.0
2018-Aug-07 09:31N 40°50' E 014°17'0 0.0
2018-Aug-07 09:01N 40°50' E 014°17'0 0.0
2018-Aug-07 08:27N 40°50' E 014°17'0 0.0
2018-Aug-07 08:01N 40°50' E 014°17'0 0.0
2018-Aug-07 07:28N 40°50' E 014°17'0 0.0
2018-Aug-07 07:00N 40°50' E 014°17'0 0.0
2018-Aug-07 06:31N 40°50' E 014°17'0 0.0
2018-Aug-07 06:01N 40°50' E 014°17'0 0.0
2018-Aug-07 05:31N 40°50' E 014°17'0 0.0
2018-Aug-07 05:01N 40°50' E 014°17'0 0.0
2018-Aug-07 04:28N 40°50' E 014°17'0 0.0
2018-Aug-07 04:01N 40°50' E 014°17'2 3.3
2018-Aug-07 03:31N 40°49' E 014°18'1 1.7
2018-Aug-07 03:00N 40°49' E 014°17'3 6.2
2018-Aug-07 02:30N 40°46' E 014°15'510.7
2018-Aug-07 02:01N 40°43' E 014°09'815.9
2018-Aug-07 01:31N 40°39' E 014°01'917.5
2018-Aug-07 01:00N 40°39' E 013°49'917.9
2018-Aug-07 00:31N 40°41' E 013°38'917.9
2018-Aug-07 00:00N 40°43' E 013°26'1517.9
2018-Aug-06 23:09N 40°46' E 013°06'317.7
2018-Aug-06 22:59N 40°47' E 013°02'817.5
2018-Aug-06 22:30N 40°50' E 012°52'1017.8
2018-Aug-06 21:58N 40°55' E 012°42'817.9
2018-Aug-06 21:30N 40°60' E 012°33'917.9
2018-Aug-06 21:00N 41°05' E 012°23'917.9
2018-Aug-06 20:31N 41°10' E 012°13'1017.8
2018-Aug-06 19:57N 41°15' E 012°02'716.9
2018-Aug-06 19:31N 41°20' E 011°54'917.0
2018-Aug-06 19:00N 41°24' E 011°45'917.1
2018-Aug-06 18:31N 41°29' E 011°35'917.5
2018-Aug-06 18:00N 41°34' E 011°26'917.6
2018-Aug-06 17:30N 41°39' E 011°16'917.7
2018-Aug-06 17:00N 41°44' E 011°06'917.4
2018-Aug-06 16:31N 41°49' E 010°57'1017.4
2018-Aug-06 15:55N 41°55' E 010°45'717.3
2018-Aug-06 15:30N 41°59' E 010°37'917.1
2018-Aug-06 15:00N 42°04' E 010°28'1017.5
2018-Aug-06 14:25N 42°10' E 010°17'717.8
2018-Aug-06 14:01N 42°14' E 010°09'917.8
2018-Aug-06 13:30N 42°20' E 009°59'918.0
2018-Aug-06 13:00N 42°26' E 009°51'1017.9
2018-Aug-06 12:26N 42°35' E 009°44'717.5
2018-Aug-06 12:01N 42°42' E 009°41'918.0
2018-Aug-06 11:30N 42°51' E 009°39'917.8
2018-Aug-06 11:00N 42°60' E 009°36'917.6
2018-Aug-06 10:30N 43°08' E 009°33'917.5
2018-Aug-06 10:00N 43°16' E 009°29'917.5
2018-Aug-06 09:31N 43°25' E 009°25'917.3
2018-Aug-06 09:01N 43°33' E 009°21'816.7
2018-Aug-06 08:31N 43°41' E 009°17'815.5
2018-Aug-06 08:01N 43°48' E 009°13'815.3
2018-Aug-06 07:31N 43°55' E 009°10'815.5
2018-Aug-06 07:00N 44°03' E 009°06'815.6
2018-Aug-06 06:30N 44°10' E 009°02'816.8
2018-Aug-06 06:01N 44°18' E 008°59'510.0
2018-Aug-06 05:30N 44°23' E 008°57'2 3.7
2018-Aug-06 05:00N 44°24' E 008°55'2 3.0
2018-Aug-06 04:30N 44°24' E 008°53'0 0.1
2018-Aug-06 04:00N 44°24' E 008°53'0 0.0
2018-Aug-06 03:30N 44°24' E 008°53'0 0.0
2018-Aug-06 03:00N 44°24' E 008°53'0 0.0
2018-Aug-06 02:30N 44°24' E 008°53'0 0.0
2018-Aug-06 02:00N 44°24' E 008°53'0 0.0
2018-Aug-06 01:30N 44°24' E 008°53'0 0.0
2018-Aug-06 01:00N 44°24' E 008°53'0 0.0
2018-Aug-06 00:30N 44°24' E 008°53'0 0.0
2018-Aug-06 00:00N 44°24' E 008°53'0 0.0
2018-Aug-05 23:30N 44°24' E 008°53'0 0.0
2018-Aug-05 23:00N 44°24' E 008°53'0 0.0
2018-Aug-05 22:30N 44°24' E 008°53'0 0.0
2018-Aug-05 22:00N 44°24' E 008°53'0 0.0
2018-Aug-05 21:30N 44°24' E 008°53'0 0.0
2018-Aug-05 21:00N 44°24' E 008°53'0 0.0
2018-Aug-05 20:30N 44°24' E 008°53'0 0.0
2018-Aug-05 20:00N 44°24' E 008°53'0 0.0
2018-Aug-05 19:30N 44°24' E 008°53'0 0.0
2018-Aug-05 19:00N 44°24' E 008°53'0 0.0
2018-Aug-05 18:30N 44°24' E 008°53'0 0.0
2018-Aug-05 18:00N 44°24' E 008°53'0 0.0
2018-Aug-05 17:30N 44°24' E 008°53'0 0.0
2018-Aug-05 17:00N 44°24' E 008°53'0 0.0
2018-Aug-05 16:30N 44°24' E 008°53'0 0.0
2018-Aug-05 16:00N 44°24' E 008°53'0 0.0
2018-Aug-05 15:30N 44°24' E 008°53'0 0.0
2018-Aug-05 15:00N 44°24' E 008°53'0 0.0
2018-Aug-05 14:00N 44°24' E 008°53'0 0.0
2018-Aug-05 13:30N 44°24' E 008°53'0 0.0
2018-Aug-05 13:00N 44°24' E 008°53'0 0.0
2018-Aug-05 12:30N 44°24' E 008°53'0 0.0
2018-Aug-05 12:00N 44°24' E 008°53'0 0.0
2018-Aug-05 11:30N 44°24' E 008°53'0 0.0
2018-Aug-05 11:00N 44°24' E 008°53'0 0.0
2018-Aug-05 10:30N 44°24' E 008°53'0 0.0
2018-Aug-05 10:00N 44°24' E 008°53'0 0.0
2018-Aug-05 09:30N 44°24' E 008°53'0 0.0
2018-Aug-05 09:00N 44°24' E 008°53'0 0.0
2018-Aug-05 08:30N 44°24' E 008°53'0 0.0
2018-Aug-05 08:00N 44°24' E 008°53'0 0.0
2018-Aug-05 07:30N 44°24' E 008°53'0 0.0
2018-Aug-05 07:00N 44°24' E 008°53'0 0.0
2018-Aug-05 06:30N 44°24' E 008°53'0 0.0
2018-Aug-05 06:00N 44°24' E 008°53'0 0.0
2018-Aug-05 05:30N 44°24' E 008°53'0 0.0
2018-Aug-05 05:00N 44°24' E 008°53'0 0.0
2018-Aug-05 04:30N 44°24' E 008°53'0 0.0
2018-Aug-05 04:00N 44°24' E 008°53'0 0.0
2018-Aug-05 03:30N 44°24' E 008°53'0 0.0
2018-Aug-05 03:00N 44°24' E 008°53'0 0.0
2018-Aug-05 02:30N 44°24' E 008°53'0 0.0
2018-Aug-05 02:00N 44°24' E 008°53'0 0.0
2018-Aug-05 01:30N 44°24' E 008°53'0 0.0
2018-Aug-05 01:00N 44°24' E 008°53'0 0.0
2018-Aug-05 00:30N 44°24' E 008°53'0 0.0
2018-Aug-05 00:00N 44°24' E 008°53'0 0.0
2018-Aug-04 23:30N 44°24' E 008°53'0 0.0
2018-Aug-04 23:00N 44°24' E 008°53'0 0.0
2018-Aug-04 22:30N 44°24' E 008°53'0 0.0
2018-Aug-04 22:00N 44°24' E 008°53'0 0.0
2018-Aug-04 21:30N 44°24' E 008°53'0 0.0
2018-Aug-04 21:00N 44°24' E 008°53'0 0.0
2018-Aug-04 20:30N 44°24' E 008°53'0 0.0
2018-Aug-04 20:00N 44°24' E 008°53'0 0.0
2018-Aug-04 19:30N 44°24' E 008°53'0 0.0
2018-Aug-04 19:00N 44°24' E 008°53'0 0.0
2018-Aug-04 18:30N 44°24' E 008°53'0 0.0
2018-Aug-04 18:00N 44°24' E 008°53'0 0.0
2018-Aug-04 17:30N 44°24' E 008°53'0 0.0
2018-Aug-04 17:00N 44°24' E 008°53'0 0.0
2018-Aug-04 16:30N 44°24' E 008°53'0 0.0
2018-Aug-04 16:00N 44°24' E 008°53'0 0.0
2018-Aug-04 15:30N 44°24' E 008°53'0 0.0
2018-Aug-04 15:00N 44°24' E 008°53'0 0.0
2018-Aug-04 14:30N 44°24' E 008°53'0 0.0
2018-Aug-04 14:00N 44°24' E 008°53'0 0.0
2018-Aug-04 13:30N 44°24' E 008°53'0 0.0
2018-Aug-04 13:00N 44°24' E 008°53'0 0.0
2018-Aug-04 12:30N 44°24' E 008°53'0 0.0
2018-Aug-04 12:00N 44°24' E 008°53'0 0.0
2018-Aug-04 11:30N 44°24' E 008°53'0 0.0
2018-Aug-04 11:00N 44°24' E 008°53'0 0.0
2018-Aug-04 10:30N 44°24' E 008°53'0 0.0
2018-Aug-04 10:00N 44°24' E 008°53'0 0.0
2018-Aug-04 09:30N 44°24' E 008°53'0 0.0
2018-Aug-04 09:00N 44°24' E 008°53'0 0.0
2018-Aug-04 08:30N 44°24' E 008°53'0 0.0
2018-Aug-04 08:00N 44°24' E 008°53'0 0.0
2018-Aug-04 07:30N 44°24' E 008°53'0 0.0
2018-Aug-04 07:00N 44°24' E 008°53'0 0.0
2018-Aug-04 06:30N 44°24' E 008°53'0 0.0
2018-Aug-04 06:00N 44°24' E 008°53'0 0.0
2018-Aug-04 05:30N 44°24' E 008°53'0 0.0
2018-Aug-04 05:00N 44°24' E 008°53'0 0.0
2018-Aug-04 04:30N 44°24' E 008°53'0 0.0
2018-Aug-04 04:00N 44°24' E 008°53'0 0.0
2018-Aug-04 03:30N 44°24' E 008°53'0 0.0
2018-Aug-04 03:00N 44°24' E 008°53'0 0.0
2018-Aug-04 02:30N 44°24' E 008°53'0 0.0
2018-Aug-04 02:00N 44°24' E 008°53'0 0.0
2018-Aug-04 01:30N 44°24' E 008°53'0 0.0
2018-Aug-04 01:00N 44°24' E 008°53'0 0.0
2018-Aug-04 00:30N 44°24' E 008°53'0 0.0
2018-Aug-04 00:00N 44°24' E 008°53'0 0.0
2018-Aug-03 23:30N 44°24' E 008°53'0 0.0
2018-Aug-03 23:00N 44°24' E 008°53'0 0.0
2018-Aug-03 22:30N 44°24' E 008°53'0 0.0
2018-Aug-03 22:00N 44°24' E 008°53'0 0.0
2018-Aug-03 21:30N 44°24' E 008°53'0 0.0
2018-Aug-03 21:00N 44°24' E 008°53'0 0.0
2018-Aug-03 20:30N 44°24' E 008°53'0 0.0
2018-Aug-03 20:00N 44°24' E 008°53'0 0.0
2018-Aug-03 19:30N 44°24' E 008°53'0 0.0
2018-Aug-03 19:00N 44°24' E 008°53'0 0.0
2018-Aug-03 18:30N 44°24' E 008°53'0 0.0
2018-Aug-03 18:00N 44°24' E 008°53'0 0.0
2018-Aug-03 17:30N 44°24' E 008°53'0 0.0
2018-Aug-03 17:00N 44°24' E 008°53'0 0.0
2018-Aug-03 16:30N 44°24' E 008°53'0 0.0
2018-Aug-03 16:00N 44°24' E 008°53'0 0.0
2018-Aug-03 15:30N 44°24' E 008°53'0 0.0
2018-Aug-03 15:00N 44°24' E 008°53'0 0.0
2018-Aug-03 14:30N 44°24' E 008°53'0 0.0
2018-Aug-03 14:00N 44°24' E 008°53'0 0.0
2018-Aug-03 13:30N 44°24' E 008°53'0 0.0
2018-Aug-03 13:00N 44°24' E 008°53'0 0.0
2018-Aug-03 12:30N 44°24' E 008°53'0 0.0
2018-Aug-03 12:00N 44°24' E 008°53'0 0.0
2018-Aug-03 11:30N 44°24' E 008°53'0 0.0
2018-Aug-03 11:00N 44°24' E 008°53'0 0.0
2018-Aug-03 10:30N 44°24' E 008°53'0 0.0
2018-Aug-03 10:00N 44°24' E 008°53'0 0.0
2018-Aug-03 09:30N 44°24' E 008°53'0 0.0
2018-Aug-03 09:00N 44°24' E 008°53'0 0.0
2018-Aug-03 08:30N 44°24' E 008°53'0 0.0
2018-Aug-03 08:00N 44°24' E 008°53'0 0.0
2018-Aug-03 07:30N 44°24' E 008°53'0 0.0
2018-Aug-03 07:00N 44°24' E 008°53'0 0.0
2018-Aug-03 06:30N 44°24' E 008°53'0 0.0
2018-Aug-03 06:00N 44°24' E 008°53'0 0.0
2018-Aug-03 05:30N 44°24' E 008°53'0 0.0
2018-Aug-03 05:00N 44°24' E 008°53'0 0.0
2018-Aug-03 04:30N 44°24' E 008°53'0 0.0
2018-Aug-03 04:00N 44°24' E 008°53'0 0.0
2018-Aug-03 03:30N 44°24' E 008°53'0 0.0
2018-Aug-03 03:00N 44°24' E 008°53'0 0.0
2018-Aug-03 02:30N 44°24' E 008°53'0 0.0
2018-Aug-03 02:00N 44°24' E 008°53'0 0.0
2018-Aug-03 01:30N 44°24' E 008°53'0 0.0
2018-Aug-03 01:00N 44°24' E 008°53'0 0.0
2018-Aug-03 00:30N 44°24' E 008°53'0 0.0
2018-Aug-03 00:00N 44°24' E 008°53'0 0.0
2018-Aug-02 23:30N 44°24' E 008°53'0 0.0
2018-Aug-02 23:00N 44°24' E 008°53'0 0.0
2018-Aug-02 22:30N 44°24' E 008°53'0 0.0
2018-Aug-02 22:00N 44°24' E 008°53'0 0.0
2018-Aug-02 21:30N 44°24' E 008°53'0 0.0
2018-Aug-02 21:00N 44°24' E 008°53'0 0.0
2018-Aug-02 20:30N 44°24' E 008°53'0 0.0
2018-Aug-02 20:00N 44°24' E 008°53'0 0.0
2018-Aug-02 19:30N 44°24' E 008°53'0 0.0
2018-Aug-02 19:00N 44°24' E 008°53'0 0.0
2018-Aug-02 18:30N 44°24' E 008°53'0 0.0
2018-Aug-02 18:00N 44°24' E 008°53'0 0.0
2018-Aug-02 17:30N 44°24' E 008°53'0 0.0
2018-Aug-02 17:00N 44°24' E 008°53'0 0.0
2018-Aug-02 16:30N 44°24' E 008°53'0 0.0
2018-Aug-02 16:00N 44°24' E 008°53'0 0.0
2018-Aug-02 15:30N 44°24' E 008°53'0 0.0
2018-Aug-02 15:00N 44°24' E 008°53'0 0.0
2018-Aug-02 14:30N 44°24' E 008°53'0 0.0
2018-Aug-02 14:00N 44°24' E 008°53'0 0.0
2018-Aug-02 13:30N 44°24' E 008°53'0 0.0
2018-Aug-02 13:00N 44°24' E 008°53'0 0.0
2018-Aug-02 12:30N 44°24' E 008°53'0 0.0
2018-Aug-02 12:00N 44°24' E 008°53'0 0.0
2018-Aug-02 11:30N 44°24' E 008°53'0 0.0
2018-Aug-02 11:00N 44°24' E 008°53'0 0.0
2018-Aug-02 10:30N 44°24' E 008°53'0 0.0
2018-Aug-02 10:00N 44°24' E 008°53'0 0.0
2018-Aug-02 09:30N 44°24' E 008°53'0 0.0
2018-Aug-02 09:00N 44°24' E 008°53'0 0.0
2018-Aug-02 08:30N 44°24' E 008°53'0 0.0
2018-Aug-02 08:00N 44°24' E 008°53'0 0.0
2018-Aug-02 07:30N 44°24' E 008°53'0 0.7
2018-Aug-02 07:00N 44°24' E 008°53'3 6.1
2018-Aug-02 06:30N 44°23' E 008°57'1 2.6
2018-Aug-02 06:00N 44°22' E 008°58'2 3.4
2018-Aug-02 05:30N 44°22' E 009°01'1 1.2
2018-Aug-02 05:00N 44°21' E 009°01'0 0.0
2018-Aug-02 04:30N 44°21' E 009°01'0 0.0
2018-Aug-02 04:00N 44°21' E 009°01'0 0.0
2018-Aug-02 03:30N 44°21' E 009°01'0 0.1
2018-Aug-02 03:00N 44°21' E 009°01'0 0.0
2018-Aug-02 02:30N 44°21' E 009°01'0 0.0
2018-Aug-02 02:00N 44°21' E 009°01'0 0.0
2018-Aug-02 01:30N 44°21' E 009°01'0 0.0
2018-Aug-02 01:00N 44°21' E 009°01'0 0.0
2018-Aug-02 00:30N 44°21' E 009°01'0 0.0
2018-Aug-02 00:00N 44°21' E 009°01'0 0.0
2018-Aug-01 23:30N 44°21' E 009°01'0 0.0
2018-Aug-01 23:00N 44°21' E 009°01'0 0.0
2018-Aug-01 22:30N 44°21' E 009°01'0 0.0
2018-Aug-01 22:00N 44°21' E 009°01'0 0.0
2018-Aug-01 21:30N 44°21' E 009°01'0 0.0
2018-Aug-01 21:00N 44°21' E 009°01'0 0.0
2018-Aug-01 20:30N 44°21' E 009°01'0 0.0
2018-Aug-01 20:00N 44°21' E 009°01'0 0.0
2018-Aug-01 19:30N 44°21' E 009°01'0 0.0
2018-Aug-01 19:00N 44°21' E 009°01'0 0.0
2018-Aug-01 18:30N 44°21' E 009°01'0 0.0
2018-Aug-01 18:00N 44°21' E 009°01'0 0.0
2018-Aug-01 17:30N 44°21' E 009°01'0 0.0
2018-Aug-01 17:00N 44°21' E 009°01'0 0.0
2018-Aug-01 16:30N 44°21' E 009°01'0 0.0
2018-Aug-01 16:00N 44°21' E 009°01'0 0.0
2018-Aug-01 15:30N 44°21' E 009°01'0 0.0
2018-Aug-01 15:00N 44°21' E 009°01'0 0.1
2018-Aug-01 14:00N 44°21' E 009°01'0 0.2
2018-Aug-01 13:30N 44°21' E 009°01'0 0.2
2018-Aug-01 13:00N 44°21' E 009°01'2 4.0
2018-Aug-01 12:30N 44°20' E 008°59'4 8.7
2018-Aug-01 12:00N 44°16' E 008°56'4 8.9
2018-Aug-01 11:30N 44°13' E 008°51'4 8.8
2018-Aug-01 11:00N 44°10' E 008°47'4 8.8
2018-Aug-01 10:30N 44°07' E 008°43'5 9.0
2018-Aug-01 10:00N 44°04' E 008°38'612.1
2018-Aug-01 09:30N 43°59' E 008°33'612.1
2018-Aug-01 09:00N 43°55' E 008°27'612.1
2018-Aug-01 08:30N 43°51' E 008°21'713.9
2018-Aug-01 08:00N 43°46' E 008°13'917.5
2018-Aug-01 07:31N 43°41' E 008°04'917.4
2018-Aug-01 07:00N 43°35' E 007°55'713.2
2018-Aug-01 06:30N 43°31' E 007°48'612.1
2018-Aug-01 06:00N 43°27' E 007°41'612.2
2018-Aug-01 05:30N 43°23' E 007°35'  
Track history (hours):
 
Tides and Currents Weather Stations Pressure Air Temp Water Temp Dewpoint Dewpoint Depression Visibility Wind Speed Wind Dir Waves Ship Positions

Csl Virginia

Last reported at 2018-Aug-11 05:15 UTC. Time now 2018-Aug-14 15:17 UTC.
Position N 31°04' E 032°19'.

Length 294 m; draft 11.3 m.

Type: Cargo ship. MMSI: 212416000.

Date/timePositionNaut miles runAvg speedWind from/ knotsBaromVisibWave heightAir tempDewpointWater temp
2018-Aug-11 05:15N 31°04' E 032°19'2 8.2
2018-Aug-11 04:59N 31°06' E 032°18'17 8.4
2018-Aug-11 02:58N 31°23' E 032°23'4 5.8
2018-Aug-11 02:19N 31°25' E 032°20'2 5.4
2018-Aug-11 02:00N 31°25' E 032°18'1 0.2
2018-Aug-10 22:32N 31°24' E 032°18'0 0.0
2018-Aug-10 22:02N 31°24' E 032°18'0 0.0
2018-Aug-10 21:58N 31°24' E 032°18'0 0.0
2018-Aug-10 20:04N 31°24' E 032°18'0 0.7
2018-Aug-10 20:00N 31°25' E 032°17'1 1.9
2018-Aug-10 19:30N 31°25' E 032°18'611.8
2018-Aug-10 19:00N 31°30' E 032°13'811.1
2018-Aug-10 18:17N 31°36' E 032°07'311.3
2018-Aug-10 18:00N 31°38' E 032°05'1713.6
2018-Aug-10 16:45N 31°48' E 031°48'5813.1
2018-Aug-10 12:18N 32°11' E 030°45'914.1
2018-Aug-10 11:41N 32°14' E 030°35'514.0
2018-Aug-10 11:20N 32°16' E 030°30'514.0
2018-Aug-10 11:01N 32°18' E 030°25'  
2018-Aug-08 05:53N 37°47' E 015°53'715.1
2018-Aug-08 05:26N 37°50' E 015°45'1614.0
2018-Aug-08 04:17N 38°04' E 015°35'414.4
2018-Aug-08 04:00N 38°08' E 015°34'714.6
2018-Aug-08 03:30N 38°15' E 015°38'5 9.8
2018-Aug-08 03:00N 38°20' E 015°40'3 6.3
2018-Aug-08 02:30N 38°23' E 015°38'5 8.6
2018-Aug-08 01:59N 38°27' E 015°35'815.3
2018-Aug-08 01:28N 38°34' E 015°31'815.6
2018-Aug-08 00:59N 38°40' E 015°26'815.4
2018-Aug-08 00:28N 38°47' E 015°21'815.6
2018-Aug-07 23:58N 38°54' E 015°17'8715.9
2018-Aug-07 18:30N 40°11' E 014°24'816.4
2018-Aug-07 18:01N 40°18' E 014°19'816.4
2018-Aug-07 17:31N 40°25' E 014°14'816.0
2018-Aug-07 17:01N 40°32' E 014°09'816.2
2018-Aug-07 16:31N 40°40' E 014°13'816.1
2018-Aug-07 16:01N 40°48' E 014°16'3 5.2
2018-Aug-07 15:30N 40°50' E 014°17'0 0.2
2018-Aug-07 15:00N 40°50' E 014°17'0 0.0
2018-Aug-07 14:30N 40°50' E 014°17'0 0.0
2018-Aug-07 14:01N 40°50' E 014°17'0 0.0
2018-Aug-07 13:31N 40°50' E 014°17'0 0.0
2018-Aug-07 13:01N 40°50' E 014°17'0 0.0
2018-Aug-07 12:31N 40°50' E 014°17'0 0.0
2018-Aug-07 12:01N 40°50' E 014°17'0 0.0
2018-Aug-07 11:31N 40°50' E 014°17'0 0.0
2018-Aug-07 11:01N 40°50' E 014°17'0 0.0
2018-Aug-07 10:27N 40°50' E 014°17'0 0.0
2018-Aug-07 10:01N 40°50' E 014°17'0 0.0
2018-Aug-07 09:31N 40°50' E 014°17'0 0.0
2018-Aug-07 09:01N 40°50' E 014°17'0 0.0
2018-Aug-07 08:27N 40°50' E 014°17'0 0.0
2018-Aug-07 08:01N 40°50' E 014°17'0 0.0
2018-Aug-07 07:28N 40°50' E 014°17'0 0.0
2018-Aug-07 07:00N 40°50' E 014°17'0 0.0
2018-Aug-07 06:31N 40°50' E 014°17'0 0.0
2018-Aug-07 06:01N 40°50' E 014°17'0 0.0
2018-Aug-07 05:31N 40°50' E 014°17'0 0.0
2018-Aug-07 05:01N 40°50' E 014°17'0 0.0
2018-Aug-07 04:28N 40°50' E 014°17'0 0.0
2018-Aug-07 04:01N 40°50' E 014°17'2 3.3
2018-Aug-07 03:31N 40°49' E 014°18'1 1.7
2018-Aug-07 03:00N 40°49' E 014°17'3 6.2
2018-Aug-07 02:30N 40°46' E 014°15'510.7
2018-Aug-07 02:01N 40°43' E 014°09'815.9
2018-Aug-07 01:31N 40°39' E 014°01'917.5
2018-Aug-07 01:00N 40°39' E 013°49'917.9
2018-Aug-07 00:31N 40°41' E 013°38'917.9
2018-Aug-07 00:00N 40°43' E 013°26'1517.9
2018-Aug-06 23:09N 40°46' E 013°06'317.7
2018-Aug-06 22:59N 40°47' E 013°02'817.5
2018-Aug-06 22:30N 40°50' E 012°52'1017.8
2018-Aug-06 21:58N 40°55' E 012°42'817.9
2018-Aug-06 21:30N 40°60' E 012°33'917.9
2018-Aug-06 21:00N 41°05' E 012°23'917.9
2018-Aug-06 20:31N 41°10' E 012°13'1017.8
2018-Aug-06 19:57N 41°15' E 012°02'716.9
2018-Aug-06 19:31N 41°20' E 011°54'917.0
2018-Aug-06 19:00N 41°24' E 011°45'917.1
2018-Aug-06 18:31N 41°29' E 011°35'917.5
2018-Aug-06 18:00N 41°34' E 011°26'917.6
2018-Aug-06 17:30N 41°39' E 011°16'917.7
2018-Aug-06 17:00N 41°44' E 011°06'917.4
2018-Aug-06 16:31N 41°49' E 010°57'1017.4
2018-Aug-06 15:55N 41°55' E 010°45'717.3
2018-Aug-06 15:30N 41°59' E 010°37'917.1
2018-Aug-06 15:00N 42°04' E 010°28'1017.5
2018-Aug-06 14:25N 42°10' E 010°17'717.8
2018-Aug-06 14:01N 42°14' E 010°09'917.8
2018-Aug-06 13:30N 42°20' E 009°59'918.0
2018-Aug-06 13:00N 42°26' E 009°51'1017.9
2018-Aug-06 12:26N 42°35' E 009°44'717.5
2018-Aug-06 12:01N 42°42' E 009°41'918.0
2018-Aug-06 11:30N 42°51' E 009°39'917.8
2018-Aug-06 11:00N 42°60' E 009°36'917.6
2018-Aug-06 10:30N 43°08' E 009°33'917.5
2018-Aug-06 10:00N 43°16' E 009°29'917.5
2018-Aug-06 09:31N 43°25' E 009°25'917.3
2018-Aug-06 09:01N 43°33' E 009°21'816.7
2018-Aug-06 08:31N 43°41' E 009°17'815.5
2018-Aug-06 08:01N 43°48' E 009°13'815.3
2018-Aug-06 07:31N 43°55' E 009°10'815.5
2018-Aug-06 07:00N 44°03' E 009°06'815.6
2018-Aug-06 06:30N 44°10' E 009°02'816.8
2018-Aug-06 06:01N 44°18' E 008°59'510.0
2018-Aug-06 05:30N 44°23' E 008°57'2 3.7
2018-Aug-06 05:00N 44°24' E 008°55'2 3.0
2018-Aug-06 04:30N 44°24' E 008°53'0 0.1
2018-Aug-06 04:00N 44°24' E 008°53'0 0.0
2018-Aug-06 03:30N 44°24' E 008°53'0 0.0
2018-Aug-06 03:00N 44°24' E 008°53'0 0.0
2018-Aug-06 02:30N 44°24' E 008°53'0 0.0
2018-Aug-06 02:00N 44°24' E 008°53'0 0.0
2018-Aug-06 01:30N 44°24' E 008°53'0 0.0
2018-Aug-06 01:00N 44°24' E 008°53'0 0.0
2018-Aug-06 00:30N 44°24' E 008°53'0 0.0
2018-Aug-06 00:00N 44°24' E 008°53'0 0.0
2018-Aug-05 23:30N 44°24' E 008°53'0 0.0
2018-Aug-05 23:00N 44°24' E 008°53'0 0.0
2018-Aug-05 22:30N 44°24' E 008°53'0 0.0
2018-Aug-05 22:00N 44°24' E 008°53'0 0.0
2018-Aug-05 21:30N 44°24' E 008°53'0 0.0
2018-Aug-05 21:00N 44°24' E 008°53'0 0.0
2018-Aug-05 20:30N 44°24' E 008°53'0 0.0
2018-Aug-05 20:00N 44°24' E 008°53'0 0.0
2018-Aug-05 19:30N 44°24' E 008°53'0 0.0
2018-Aug-05 19:00N 44°24' E 008°53'0 0.0
2018-Aug-05 18:30N 44°24' E 008°53'0 0.0
2018-Aug-05 18:00N 44°24' E 008°53'0 0.0
2018-Aug-05 17:30N 44°24' E 008°53'0 0.0
2018-Aug-05 17:00N 44°24' E 008°53'0 0.0
2018-Aug-05 16:30N 44°24' E 008°53'0 0.0
2018-Aug-05 16:00N 44°24' E 008°53'0 0.0
2018-Aug-05 15:30N 44°24' E 008°53'0 0.0
2018-Aug-05 15:00N 44°24' E 008°53'0 0.0
2018-Aug-05 14:00N 44°24' E 008°53'0 0.0
2018-Aug-05 13:30N 44°24' E 008°53'0 0.0
2018-Aug-05 13:00N 44°24' E 008°53'0 0.0
2018-Aug-05 12:30N 44°24' E 008°53'0 0.0
2018-Aug-05 12:00N 44°24' E 008°53'0 0.0
2018-Aug-05 11:30N 44°24' E 008°53'0 0.0
2018-Aug-05 11:00N 44°24' E 008°53'0 0.0
2018-Aug-05 10:30N 44°24' E 008°53'0 0.0
2018-Aug-05 10:00N 44°24' E 008°53'0 0.0
2018-Aug-05 09:30N 44°24' E 008°53'0 0.0
2018-Aug-05 09:00N 44°24' E 008°53'0 0.0
2018-Aug-05 08:30N 44°24' E 008°53'0 0.0
2018-Aug-05 08:00N 44°24' E 008°53'0 0.0
2018-Aug-05 07:30N 44°24' E 008°53'0 0.0
2018-Aug-05 07:00N 44°24' E 008°53'0 0.0
2018-Aug-05 06:30N 44°24' E 008°53'0 0.0
2018-Aug-05 06:00N 44°24' E 008°53'0 0.0
2018-Aug-05 05:30N 44°24' E 008°53'0 0.0
2018-Aug-05 05:00N 44°24' E 008°53'0 0.0
2018-Aug-05 04:30N 44°24' E 008°53'0 0.0
2018-Aug-05 04:00N 44°24' E 008°53'0 0.0
2018-Aug-05 03:30N 44°24' E 008°53'0 0.0
2018-Aug-05 03:00N 44°24' E 008°53'0 0.0
2018-Aug-05 02:30N 44°24' E 008°53'0 0.0
2018-Aug-05 02:00N 44°24' E 008°53'0 0.0
2018-Aug-05 01:30N 44°24' E 008°53'0 0.0
2018-Aug-05 01:00N 44°24' E 008°53'0 0.0
2018-Aug-05 00:30N 44°24' E 008°53'0 0.0
2018-Aug-05 00:00N 44°24' E 008°53'0 0.0
2018-Aug-04 23:30N 44°24' E 008°53'0 0.0
2018-Aug-04 23:00N 44°24' E 008°53'0 0.0
2018-Aug-04 22:30N 44°24' E 008°53'0 0.0
2018-Aug-04 22:00N 44°24' E 008°53'0 0.0
2018-Aug-04 21:30N 44°24' E 008°53'0 0.0
2018-Aug-04 21:00N 44°24' E 008°53'0 0.0
2018-Aug-04 20:30N 44°24' E 008°53'0 0.0
2018-Aug-04 20:00N 44°24' E 008°53'0 0.0
2018-Aug-04 19:30N 44°24' E 008°53'0 0.0
2018-Aug-04 19:00N 44°24' E 008°53'0 0.0
2018-Aug-04 18:30N 44°24' E 008°53'0 0.0
2018-Aug-04 18:00N 44°24' E 008°53'0 0.0
2018-Aug-04 17:30N 44°24' E 008°53'0 0.0
2018-Aug-04 17:00N 44°24' E 008°53'0 0.0
2018-Aug-04 16:30N 44°24' E 008°53'0 0.0
2018-Aug-04 16:00N 44°24' E 008°53'0 0.0
2018-Aug-04 15:30N 44°24' E 008°53'0 0.0
2018-Aug-04 15:00N 44°24' E 008°53'0 0.0
2018-Aug-04 14:30N 44°24' E 008°53'0 0.0
2018-Aug-04 14:00N 44°24' E 008°53'0 0.0
2018-Aug-04 13:30N 44°24' E 008°53'0 0.0
2018-Aug-04 13:00N 44°24' E 008°53'0 0.0
2018-Aug-04 12:30N 44°24' E 008°53'0 0.0
2018-Aug-04 12:00N 44°24' E 008°53'0 0.0
2018-Aug-04 11:30N 44°24' E 008°53'0 0.0
2018-Aug-04 11:00N 44°24' E 008°53'0 0.0
2018-Aug-04 10:30N 44°24' E 008°53'0 0.0
2018-Aug-04 10:00N 44°24' E 008°53'0 0.0
2018-Aug-04 09:30N 44°24' E 008°53'0 0.0
2018-Aug-04 09:00N 44°24' E 008°53'0 0.0
2018-Aug-04 08:30N 44°24' E 008°53'0 0.0
2018-Aug-04 08:00N 44°24' E 008°53'0 0.0
2018-Aug-04 07:30N 44°24' E 008°53'0 0.0
2018-Aug-04 07:00N 44°24' E 008°53'0 0.0
2018-Aug-04 06:30N 44°24' E 008°53'0 0.0
2018-Aug-04 06:00N 44°24' E 008°53'0 0.0
2018-Aug-04 05:30N 44°24' E 008°53'0 0.0
2018-Aug-04 05:00N 44°24' E 008°53'0 0.0
2018-Aug-04 04:30N 44°24' E 008°53'0 0.0
2018-Aug-04 04:00N 44°24' E 008°53'0 0.0
2018-Aug-04 03:30N 44°24' E 008°53'0 0.0
2018-Aug-04 03:00N 44°24' E 008°53'0 0.0
2018-Aug-04 02:30N 44°24' E 008°53'0 0.0
2018-Aug-04 02:00N 44°24' E 008°53'0 0.0
2018-Aug-04 01:30N 44°24' E 008°53'0 0.0
2018-Aug-04 01:00N 44°24' E 008°53'0 0.0
2018-Aug-04 00:30N 44°24' E 008°53'0 0.0
2018-Aug-04 00:00N 44°24' E 008°53'0 0.0
2018-Aug-03 23:30N 44°24' E 008°53'0 0.0
2018-Aug-03 23:00N 44°24' E 008°53'0 0.0
2018-Aug-03 22:30N 44°24' E 008°53'0 0.0
2018-Aug-03 22:00N 44°24' E 008°53'0 0.0
2018-Aug-03 21:30N 44°24' E 008°53'0 0.0
2018-Aug-03 21:00N 44°24' E 008°53'0 0.0
2018-Aug-03 20:30N 44°24' E 008°53'0 0.0
2018-Aug-03 20:00N 44°24' E 008°53'0 0.0
2018-Aug-03 19:30N 44°24' E 008°53'0 0.0
2018-Aug-03 19:00N 44°24' E 008°53'0 0.0
2018-Aug-03 18:30N 44°24' E 008°53'0 0.0
2018-Aug-03 18:00N 44°24' E 008°53'0 0.0
2018-Aug-03 17:30N 44°24' E 008°53'0 0.0
2018-Aug-03 17:00N 44°24' E 008°53'0 0.0
2018-Aug-03 16:30N 44°24' E 008°53'0 0.0
2018-Aug-03 16:00N 44°24' E 008°53'0 0.0
2018-Aug-03 15:30N 44°24' E 008°53'0 0.0
2018-Aug-03 15:00N 44°24' E 008°53'0 0.0
2018-Aug-03 14:30N 44°24' E 008°53'0 0.0
2018-Aug-03 14:00N 44°24' E 008°53'0 0.0
2018-Aug-03 13:30N 44°24' E 008°53'0 0.0
2018-Aug-03 13:00N 44°24' E 008°53'0 0.0
2018-Aug-03 12:30N 44°24' E 008°53'0 0.0
2018-Aug-03 12:00N 44°24' E 008°53'0 0.0
2018-Aug-03 11:30N 44°24' E 008°53'0 0.0
2018-Aug-03 11:00N 44°24' E 008°53'0 0.0
2018-Aug-03 10:30N 44°24' E 008°53'0 0.0
2018-Aug-03 10:00N 44°24' E 008°53'0 0.0
2018-Aug-03 09:30N 44°24' E 008°53'0 0.0
2018-Aug-03 09:00N 44°24' E 008°53'0 0.0
2018-Aug-03 08:30N 44°24' E 008°53'0 0.0
2018-Aug-03 08:00N 44°24' E 008°53'0 0.0
2018-Aug-03 07:30N 44°24' E 008°53'0 0.0
2018-Aug-03 07:00N 44°24' E 008°53'0 0.0
2018-Aug-03 06:30N 44°24' E 008°53'0 0.0
2018-Aug-03 06:00N 44°24' E 008°53'0 0.0
2018-Aug-03 05:30N 44°24' E 008°53'0 0.0
2018-Aug-03 05:00N 44°24' E 008°53'0 0.0
2018-Aug-03 04:30N 44°24' E 008°53'0 0.0
2018-Aug-03 04:00N 44°24' E 008°53'0 0.0
2018-Aug-03 03:30N 44°24' E 008°53'0 0.0
2018-Aug-03 03:00N 44°24' E 008°53'0 0.0
2018-Aug-03 02:30N 44°24' E 008°53'0 0.0
2018-Aug-03 02:00N 44°24' E 008°53'0 0.0
2018-Aug-03 01:30N 44°24' E 008°53'0 0.0
2018-Aug-03 01:00N 44°24' E 008°53'0 0.0
2018-Aug-03 00:30N 44°24' E 008°53'0 0.0
2018-Aug-03 00:00N 44°24' E 008°53'0 0.0
2018-Aug-02 23:30N 44°24' E 008°53'0 0.0
2018-Aug-02 23:00N 44°24' E 008°53'0 0.0
2018-Aug-02 22:30N 44°24' E 008°53'0 0.0
2018-Aug-02 22:00N 44°24' E 008°53'0 0.0
2018-Aug-02 21:30N 44°24' E 008°53'0 0.0
2018-Aug-02 21:00N 44°24' E 008°53'0 0.0
2018-Aug-02 20:30N 44°24' E 008°53'0 0.0
2018-Aug-02 20:00N 44°24' E 008°53'0 0.0
2018-Aug-02 19:30N 44°24' E 008°53'0 0.0
2018-Aug-02 19:00N 44°24' E 008°53'0 0.0
2018-Aug-02 18:30N 44°24' E 008°53'0 0.0
2018-Aug-02 18:00N 44°24' E 008°53'0 0.0
2018-Aug-02 17:30N 44°24' E 008°53'0 0.0
2018-Aug-02 17:00N 44°24' E 008°53'0 0.0
2018-Aug-02 16:30N 44°24' E 008°53'0 0.0
2018-Aug-02 16:00N 44°24' E 008°53'0 0.0
2018-Aug-02 15:30N 44°24' E 008°53'0 0.0
2018-Aug-02 15:00N 44°24' E 008°53'0 0.0
2018-Aug-02 14:30N 44°24' E 008°53'0 0.0
2018-Aug-02 14:00N 44°24' E 008°53'0 0.0
2018-Aug-02 13:30N 44°24' E 008°53'0 0.0
2018-Aug-02 13:00N 44°24' E 008°53'0 0.0
2018-Aug-02 12:30N 44°24' E 008°53'0 0.0
2018-Aug-02 12:00N 44°24' E 008°53'0 0.0
2018-Aug-02 11:30N 44°24' E 008°53'0 0.0
2018-Aug-02 11:00N 44°24' E 008°53'0 0.0
2018-Aug-02 10:30N 44°24' E 008°53'0 0.0
2018-Aug-02 10:00N 44°24' E 008°53'0 0.0
2018-Aug-02 09:30N 44°24' E 008°53'0 0.0
2018-Aug-02 09:00N 44°24' E 008°53'0 0.0
2018-Aug-02 08:30N 44°24' E 008°53'0 0.0
2018-Aug-02 08:00N 44°24' E 008°53'0 0.0
2018-Aug-02 07:30N 44°24' E 008°53'0 0.7
2018-Aug-02 07:00N 44°24' E 008°53'3 6.1
2018-Aug-02 06:30N 44°23' E 008°57'1 2.6
2018-Aug-02 06:00N 44°22' E 008°58'2 3.4
2018-Aug-02 05:30N 44°22' E 009°01'1 1.2
2018-Aug-02 05:00N 44°21' E 009°01'0 0.0
2018-Aug-02 04:30N 44°21' E 009°01'0 0.0
2018-Aug-02 04:00N 44°21' E 009°01'0 0.0
2018-Aug-02 03:30N 44°21' E 009°01'0 0.1
2018-Aug-02 03:00N 44°21' E 009°01'0 0.0
2018-Aug-02 02:30N 44°21' E 009°01'0 0.0
2018-Aug-02 02:00N 44°21' E 009°01'0 0.0
2018-Aug-02 01:30N 44°21' E 009°01'0 0.0
2018-Aug-02 01:00N 44°21' E 009°01'0 0.0
2018-Aug-02 00:30N 44°21' E 009°01'0 0.0
2018-Aug-02 00:00N 44°21' E 009°01'0 0.0
2018-Aug-01 23:30N 44°21' E 009°01'0 0.0
2018-Aug-01 23:00N 44°21' E 009°01'0 0.0
2018-Aug-01 22:30N 44°21' E 009°01'0 0.0
2018-Aug-01 22:00N 44°21' E 009°01'0 0.0
2018-Aug-01 21:30N 44°21' E 009°01'0 0.0
2018-Aug-01 21:00N 44°21' E 009°01'0 0.0
2018-Aug-01 20:30N 44°21' E 009°01'0 0.0
2018-Aug-01 20:00N 44°21' E 009°01'0 0.0
2018-Aug-01 19:30N 44°21' E 009°01'0 0.0
2018-Aug-01 19:00N 44°21' E 009°01'0 0.0
2018-Aug-01 18:30N 44°21' E 009°01'0 0.0
2018-Aug-01 18:00N 44°21' E 009°01'0 0.0
2018-Aug-01 17:30N 44°21' E 009°01'0 0.0
2018-Aug-01 17:00N 44°21' E 009°01'0 0.0
2018-Aug-01 16:30N 44°21' E 009°01'0 0.0
2018-Aug-01 16:00N 44°21' E 009°01'0 0.0
2018-Aug-01 15:30N 44°21' E 009°01'0 0.0
2018-Aug-01 15:00N 44°21' E 009°01'0 0.1
2018-Aug-01 14:00N 44°21' E 009°01'0 0.2
2018-Aug-01 13:30N 44°21' E 009°01'0 0.2
2018-Aug-01 13:00N 44°21' E 009°01'2 4.0
2018-Aug-01 12:30N 44°20' E 008°59'4 8.7
2018-Aug-01 12:00N 44°16' E 008°56'4 8.9
2018-Aug-01 11:30N 44°13' E 008°51'4 8.8
2018-Aug-01 11:00N 44°10' E 008°47'4 8.8
2018-Aug-01 10:30N 44°07' E 008°43'5 9.0
2018-Aug-01 10:00N 44°04' E 008°38'612.1
2018-Aug-01 09:30N 43°59' E 008°33'612.1
2018-Aug-01 09:00N 43°55' E 008°27'612.1
2018-Aug-01 08:30N 43°51' E 008°21'713.9
2018-Aug-01 08:00N 43°46' E 008°13'917.5
2018-Aug-01 07:31N 43°41' E 008°04'917.4
2018-Aug-01 07:00N 43°35' E 007°55'713.2
2018-Aug-01 06:30N 43°31' E 007°48'612.1
2018-Aug-01 06:00N 43°27' E 007°41'612.2
2018-Aug-01 05:30N 43°23' E 007°35'  

Dump ship's entire track history